createdAt,value
2018-12-03T00:01:08.636Z,14.30
2018-12-03T00:03:34.928Z,14.20
2018-12-03T00:06:01.192Z,14.20
2018-12-03T00:08:27.605Z,14.20
2018-12-03T00:10:55.461Z,14.30
2018-12-03T00:13:21.738Z,14.30
2018-12-03T00:15:48.037Z,14.10
2018-12-03T00:18:15.104Z,14.40
2018-12-03T00:20:41.541Z,14.40
2018-12-03T00:23:08.604Z,14.40
2018-12-03T00:25:35.587Z,14.40
2018-12-03T00:28:01.836Z,14.30
2018-12-03T00:30:28.147Z,14.40
2018-12-03T00:32:54.446Z,14.40
2018-12-03T00:35:20.887Z,14.30
2018-12-03T00:37:47.161Z,14.10
2018-12-03T00:40:13.605Z,14.30
2018-12-03T00:42:39.837Z,14.30
2018-12-03T00:45:06.916Z,14.40
2018-12-03T00:47:33.500Z,14.50
2018-12-03T00:50:00.540Z,14.40
2018-12-03T00:52:26.775Z,14.40
2018-12-03T00:54:53.793Z,14.40
2018-12-03T00:57:20.039Z,14.40
2018-12-03T00:59:46.287Z,14.50
2018-12-03T01:02:13.319Z,14.40
2018-12-03T01:04:40.345Z,14.30
2018-12-03T01:07:06.617Z,14.40
2018-12-03T01:09:33.132Z,14.40
2018-12-03T01:11:59.423Z,14.40
2018-12-03T01:14:25.641Z,14.50
2018-12-03T01:16:51.889Z,14.50
2018-12-03T01:19:18.108Z,14.50
2018-12-03T01:21:44.455Z,14.50
2018-12-03T01:24:11.439Z,14.50
2018-12-03T01:26:37.669Z,14.50
2018-12-03T01:29:03.933Z,14.60
2018-12-03T01:31:30.204Z,14.60
2018-12-03T01:33:57.301Z,14.60
2018-12-03T01:36:23.730Z,14.60
2018-12-03T01:38:49.965Z,14.70
2018-12-03T01:41:16.253Z,14.70
2018-12-03T01:43:42.503Z,14.70
2018-12-03T01:46:08.773Z,14.70
2018-12-03T01:48:35.809Z,14.60
2018-12-03T01:51:02.192Z,14.60
2018-12-03T01:53:28.457Z,14.50
2018-12-03T01:55:54.811Z,14.50
2018-12-03T01:58:21.042Z,14.50
2018-12-03T02:00:48.033Z,14.60
2018-12-03T02:03:14.276Z,14.60
2018-12-03T02:05:40.525Z,14.60
2018-12-03T02:08:06.754Z,14.60
2018-12-03T02:10:33.749Z,14.80
2018-12-03T02:13:00.820Z,14.80
2018-12-03T02:15:27.108Z,14.80
2018-12-03T02:17:54.100Z,14.80
2018-12-03T02:20:20.560Z,14.80
2018-12-03T02:22:46.912Z,14.70
2018-12-03T02:25:13.918Z,14.70
2018-12-03T02:27:40.197Z,14.70
2018-12-03T02:30:06.460Z,14.80
2018-12-03T02:32:32.724Z,14.80
2018-12-03T02:34:58.952Z,14.80
2018-12-03T02:37:25.251Z,14.80
2018-12-03T02:39:51.557Z,14.90
2018-12-03T02:42:17.844Z,14.90
2018-12-03T02:44:44.313Z,14.90
2018-12-03T02:47:10.609Z,14.90
2018-12-03T02:49:36.868Z,14.70
2018-12-03T02:52:03.149Z,14.60
2018-12-03T02:54:29.380Z,14.60
2018-12-03T02:56:55.627Z,14.70
2018-12-03T02:59:22.671Z,14.60
2018-12-03T03:01:50.506Z,14.60
2018-12-03T03:04:16.857Z,14.60
2018-12-03T03:06:43.828Z,14.50
2018-12-03T03:09:10.214Z,14.50
2018-12-03T03:11:36.479Z,14.50
2018-12-03T03:14:03.460Z,14.40
2018-12-03T03:16:30.453Z,14.40
2018-12-03T03:18:56.712Z,14.40
2018-12-03T03:21:23.099Z,14.50
2018-12-03T03:23:49.325Z,14.50
2018-12-03T03:26:15.562Z,14.60
2018-12-03T03:28:42.110Z,14.60
2018-12-03T03:31:08.421Z,14.70
2018-12-03T03:33:34.706Z,14.70
2018-12-03T03:36:00.960Z,14.70
2018-12-03T03:38:27.209Z,14.70
2018-12-03T03:40:53.424Z,14.80
2018-12-03T03:43:19.673Z,14.80
2018-12-03T03:45:46.683Z,14.80
2018-12-03T03:48:12.947Z,14.80
2018-12-03T03:50:39.217Z,14.80
2018-12-03T03:53:05.483Z,14.80
2018-12-03T03:55:31.761Z,14.60
2018-12-03T03:57:58.080Z,14.50
2018-12-03T04:00:24.328Z,14.50
2018-12-03T04:02:51.952Z,14.50
2018-12-03T04:05:16.970Z,14.60
2018-12-03T04:07:43.230Z,14.70
2018-12-03T04:10:10.346Z,14.70
2018-12-03T04:12:36.642Z,14.70
2018-12-03T04:15:02.953Z,14.60
2018-12-03T04:17:29.204Z,14.60
2018-12-03T04:19:55.487Z,14.50
2018-12-03T04:22:21.790Z,14.50
2018-12-03T04:24:48.080Z,14.40
2018-12-03T04:27:14.327Z,14.50
2018-12-03T04:29:40.654Z,14.50
2018-12-03T04:32:07.674Z,14.60
2018-12-03T04:34:33.929Z,14.60
2018-12-03T04:37:00.921Z,14.50
2018-12-03T04:39:27.165Z,14.60
2018-12-03T04:41:53.432Z,14.50
2018-12-03T04:44:20.436Z,14.70
2018-12-03T04:46:46.667Z,14.60
2018-12-03T04:49:12.904Z,14.80
2018-12-03T04:51:39.461Z,14.70
2018-12-03T04:54:06.497Z,14.60
2018-12-03T04:56:32.727Z,14.60
2018-12-03T04:58:59.007Z,14.60
2018-12-03T05:01:25.340Z,14.60
2018-12-03T05:03:51.608Z,14.60
2018-12-03T05:06:17.867Z,14.70
2018-12-03T05:08:44.128Z,14.60
2018-12-03T05:11:10.410Z,14.60
2018-12-03T05:13:37.423Z,14.50
2018-12-03T05:16:03.698Z,14.60
2018-12-03T05:18:29.984Z,14.50
2018-12-03T05:20:56.353Z,14.50
2018-12-03T05:23:22.620Z,14.40
2018-12-03T05:25:48.872Z,14.40
2018-12-03T05:28:15.135Z,14.40
2018-12-03T05:30:41.606Z,14.50
2018-12-03T05:33:07.860Z,14.50
2018-12-03T05:35:34.104Z,14.40
2018-12-03T05:38:00.357Z,14.40
2018-12-03T05:40:27.478Z,14.40
2018-12-03T05:42:53.750Z,14.50
2018-12-03T05:45:20.034Z,14.50
2018-12-03T05:47:46.308Z,14.40
2018-12-03T05:50:12.568Z,14.40
2018-12-03T05:52:38.840Z,14.40
2018-12-03T05:55:05.123Z,14.50
2018-12-03T05:57:31.434Z,14.50
2018-12-03T05:59:57.644Z,14.40
2018-12-03T06:02:23.912Z,14.40
2018-12-03T06:04:50.173Z,14.30
2018-12-03T06:07:17.210Z,14.30
2018-12-03T06:09:44.180Z,14.30
2018-12-03T06:12:11.189Z,14.40
2018-12-03T06:14:37.417Z,14.40
2018-12-03T06:17:03.691Z,14.40
2018-12-03T06:19:29.957Z,14.40
2018-12-03T06:21:56.270Z,14.50
2018-12-03T06:24:22.524Z,14.50
2018-12-03T06:26:48.779Z,14.50
2018-12-03T06:29:15.781Z,14.30
2018-12-03T06:31:42.004Z,14.30
2018-12-03T06:36:41.159Z,14.30
2018-12-03T06:39:08.188Z,14.20
2018-12-03T06:41:34.477Z,14.20
2018-12-03T06:44:00.767Z,14.30
2018-12-03T06:46:27.767Z,14.20
2018-12-03T06:48:54.017Z,14.40
2018-12-03T06:51:20.273Z,14.30
2018-12-03T06:53:47.257Z,14.30
2018-12-03T06:56:13.500Z,14.30
2018-12-03T06:58:39.748Z,14.40
2018-12-03T07:01:06.045Z,14.40
2018-12-03T07:03:33.114Z,14.50
2018-12-03T07:05:59.396Z,14.50
2018-12-03T07:08:25.623Z,14.50
2018-12-03T07:10:53.862Z,14.50
2018-12-03T07:13:20.902Z,14.60
2018-12-03T07:15:47.151Z,14.60
2018-12-03T07:18:14.176Z,14.50
2018-12-03T07:20:41.330Z,14.40
2018-12-03T07:23:08.336Z,14.40
2018-12-03T07:25:34.633Z,14.40
2018-12-03T07:28:01.017Z,14.40
2018-12-03T07:30:27.280Z,14.40
2018-12-03T07:32:54.265Z,14.50
2018-12-03T07:35:20.669Z,14.50
2018-12-03T07:37:46.919Z,14.60
2018-12-03T07:40:13.179Z,14.50
2018-12-03T07:42:39.454Z,14.60
2018-12-03T07:45:05.853Z,14.60
2018-12-03T07:47:32.129Z,14.60
2018-12-03T07:49:58.365Z,14.60
2018-12-03T07:52:24.650Z,14.70
2018-12-03T07:54:51.776Z,14.60
2018-12-03T07:57:18.092Z,14.60
2018-12-03T07:59:44.349Z,14.70
2018-12-03T08:02:11.360Z,14.70
2018-12-03T08:04:37.612Z,14.70
2018-12-03T08:07:03.889Z,14.80
2018-12-03T08:09:30.110Z,14.80
2018-12-03T08:11:56.381Z,14.70
2018-12-03T08:14:22.622Z,14.70
2018-12-03T08:16:49.653Z,14.40
2018-12-03T08:19:15.907Z,14.40
2018-12-03T08:21:42.962Z,14.60
2018-12-03T08:24:09.209Z,14.60
2018-12-03T08:26:35.482Z,14.60
2018-12-03T08:29:01.769Z,14.70
2018-12-03T08:31:28.001Z,14.80
2018-12-03T08:33:54.241Z,14.70
2018-12-03T08:36:20.493Z,14.80
2018-12-03T08:38:46.761Z,14.80
2018-12-03T08:41:13.779Z,14.90
2018-12-03T08:43:40.083Z,14.90
2018-12-03T08:46:06.379Z,14.90
2018-12-03T08:48:32.736Z,15.00
2018-12-03T08:50:59.001Z,15.00
2018-12-03T08:53:25.241Z,15.10
2018-12-03T08:55:51.477Z,15.20
2018-12-03T08:58:18.649Z,15.20
2018-12-03T09:00:45.163Z,15.30
2018-12-03T09:03:11.604Z,15.20
2018-12-03T09:05:37.877Z,15.20
2018-12-03T09:08:04.172Z,15.30
2018-12-03T09:10:30.424Z,15.30
2018-12-03T09:12:56.702Z,15.20
2018-12-03T09:15:23.737Z,15.20
2018-12-03T09:17:50.039Z,15.20
2018-12-03T09:20:16.425Z,15.20
2018-12-03T09:22:42.733Z,15.20
2018-12-03T09:25:09.783Z,15.30
2018-12-03T09:27:36.129Z,15.30
2018-12-03T09:30:02.467Z,15.30
2018-12-03T09:32:28.870Z,15.30
2018-12-03T09:34:55.952Z,15.30
2018-12-03T09:37:22.308Z,15.30
2018-12-03T09:39:48.617Z,15.40
2018-12-03T09:42:14.929Z,15.40
2018-12-03T09:44:42.004Z,15.30
2018-12-03T09:47:08.340Z,15.30
2018-12-03T09:49:34.678Z,15.30
2018-12-03T09:52:01.080Z,15.30
2018-12-03T09:54:27.327Z,15.20
2018-12-03T09:56:53.621Z,15.00
2018-12-03T09:59:19.945Z,14.90
2018-12-03T10:01:46.322Z,14.80
2018-12-03T10:04:12.567Z,14.70
2018-12-03T10:06:38.907Z,14.60
2018-12-03T10:09:05.292Z,14.70
2018-12-03T10:11:31.711Z,14.50
2018-12-03T10:13:57.937Z,14.50
2018-12-03T10:16:24.324Z,14.50
2018-12-03T10:18:50.658Z,14.30
2018-12-03T10:21:17.013Z,14.50
2018-12-03T10:23:44.137Z,14.50
2018-12-03T10:32:03.614Z,14.60
2018-12-03T10:34:29.997Z,14.50
2018-12-03T10:36:56.446Z,14.50
2018-12-03T10:39:22.709Z,14.50
2018-12-03T10:41:49.126Z,14.40
2018-12-03T10:44:15.489Z,14.40
2018-12-03T10:46:41.916Z,14.50
2018-12-03T10:49:08.170Z,14.50
2018-12-03T10:51:35.203Z,14.30
2018-12-03T10:54:02.238Z,14.50
2018-12-03T10:56:28.545Z,14.50
2018-12-03T10:58:54.849Z,14.40
2018-12-03T11:01:21.268Z,14.40
2018-12-03T11:03:53.608Z,14.40
2018-12-03T11:06:20.167Z,14.50
2018-12-03T11:08:47.305Z,14.70
2018-12-03T11:11:14.368Z,14.70
2018-12-03T11:13:40.718Z,14.70
2018-12-03T11:16:07.185Z,14.80
2018-12-03T11:18:33.493Z,14.70
2018-12-03T11:20:59.841Z,14.60
2018-12-03T11:23:34.598Z,14.50
2018-12-03T11:25:59.390Z,14.70
2018-12-03T11:28:25.728Z,14.70
2018-12-03T11:30:52.793Z,14.60
2018-12-03T11:33:19.248Z,14.60
2018-12-03T11:35:45.556Z,14.80
2018-12-03T11:38:11.918Z,14.90
2018-12-03T11:40:38.209Z,14.80
2018-12-03T11:43:04.492Z,14.70
2018-12-03T11:45:30.914Z,14.70
2018-12-03T11:47:57.181Z,14.70
2018-12-03T11:50:23.401Z,14.70
2018-12-03T11:52:50.413Z,14.80
2018-12-03T11:55:18.225Z,15.10
2018-12-03T11:57:45.208Z,15.10
2018-12-03T12:00:11.524Z,15.10
2018-12-03T12:02:37.821Z,15.20
2018-12-03T12:05:04.809Z,15.40
2018-12-03T12:07:31.105Z,15.40
2018-12-03T12:10:04.159Z,15.40
2018-12-03T12:12:30.561Z,15.30
2018-12-03T12:14:56.846Z,15.40
2018-12-03T12:17:23.834Z,15.40
2018-12-03T12:19:51.024Z,15.40
2018-12-03T12:22:17.332Z,15.40
2018-12-03T12:24:43.676Z,15.40
2018-12-03T12:27:09.974Z,15.60
2018-12-03T12:29:36.291Z,15.70
2018-12-03T12:32:02.640Z,15.70
2018-12-03T12:34:28.929Z,15.60
2018-12-03T12:36:55.205Z,15.60
2018-12-03T12:39:22.227Z,15.60
2018-12-03T12:41:48.574Z,15.60
2018-12-03T12:44:14.868Z,15.60
2018-12-03T12:46:41.117Z,15.60
2018-12-03T12:49:07.405Z,15.60
2018-12-03T12:51:33.709Z,15.60
2018-12-03T12:54:00.815Z,15.60
2018-12-03T12:56:27.053Z,15.60
2018-12-03T12:58:53.412Z,15.50
2018-12-03T13:01:20.474Z,15.40
2018-12-03T13:03:47.469Z,15.30
2018-12-03T13:06:13.842Z,15.30
2018-12-03T13:08:40.145Z,15.20
2018-12-03T13:11:06.564Z,15.20
2018-12-03T13:13:32.898Z,15.10
2018-12-03T13:15:59.344Z,15.20
2018-12-03T13:18:25.629Z,15.20
2018-12-03T13:20:51.921Z,15.20
2018-12-03T13:23:18.211Z,15.20
2018-12-03T13:25:44.490Z,15.30
2018-12-03T13:28:11.548Z,15.50
2018-12-03T13:30:38.608Z,15.60
2018-12-03T13:33:04.923Z,15.70
2018-12-03T13:38:05.371Z,15.50
2018-12-03T13:40:31.702Z,15.50
2018-12-03T13:42:58.033Z,15.50
2018-12-03T13:45:24.337Z,15.60
2018-12-03T13:47:50.689Z,15.60
2018-12-03T13:50:17.028Z,15.60
2018-12-03T13:52:43.345Z,15.60
2018-12-03T13:55:09.740Z,15.60
2018-12-03T13:57:36.082Z,15.60
2018-12-03T14:00:02.424Z,15.60
2018-12-03T14:02:29.581Z,15.30
2018-12-03T14:04:55.920Z,15.30
2018-12-03T14:07:22.299Z,15.20
2018-12-03T14:09:49.469Z,15.10
2018-12-03T14:12:16.521Z,15.10
2018-12-03T14:14:43.599Z,15.10
2018-12-03T14:17:09.924Z,15.10
2018-12-03T14:19:37.749Z,15.10
2018-12-03T14:22:05.221Z,15.20
2018-12-03T14:24:32.289Z,15.10
2018-12-03T14:26:59.299Z,15.20
2018-12-03T14:29:26.372Z,15.20
2018-12-03T14:31:53.451Z,15.30
2018-12-03T14:34:19.814Z,15.20
2018-12-03T14:36:46.116Z,15.20
2018-12-03T14:39:12.418Z,15.20
2018-12-03T14:41:38.684Z,15.20
2018-12-03T14:44:05.021Z,15.10
2018-12-03T14:46:31.374Z,15.20
2018-12-03T14:48:57.837Z,15.20
2018-12-03T14:51:24.214Z,15.30
2018-12-03T14:53:50.566Z,15.60
2018-12-03T14:56:16.951Z,15.40
2018-12-03T14:58:43.229Z,15.40
2018-12-03T15:01:09.520Z,15.40
2018-12-03T15:03:35.815Z,15.30
2018-12-03T15:06:02.123Z,15.40
2018-12-03T15:08:29.155Z,15.50
2018-12-03T15:10:55.519Z,15.50
2018-12-03T15:13:21.839Z,15.50
2018-12-03T15:15:48.362Z,15.40
2018-12-03T15:18:15.386Z,15.50
2018-12-03T15:20:41.768Z,15.40
2018-12-03T15:23:08.114Z,15.40
2018-12-03T15:25:34.395Z,15.40
2018-12-03T15:28:00.661Z,15.40
2018-12-03T15:30:27.088Z,15.50
2018-12-03T15:32:53.489Z,15.40
2018-12-03T15:35:19.834Z,15.50
2018-12-03T15:37:46.176Z,15.50
2018-12-03T15:40:12.618Z,15.50
2018-12-03T15:42:39.126Z,15.50
2018-12-03T15:45:06.556Z,15.40
2018-12-03T15:47:33.011Z,15.30
2018-12-03T15:50:00.078Z,15.50
2018-12-03T15:52:26.462Z,15.50
2018-12-03T15:54:52.794Z,15.60
2018-12-03T15:57:19.228Z,15.50
2018-12-03T15:59:46.323Z,15.60
2018-12-03T16:02:12.624Z,15.60
2018-12-03T16:04:39.643Z,15.60
2018-12-03T16:07:05.934Z,15.60
2018-12-03T16:09:32.225Z,15.60
2018-12-03T16:11:59.264Z,15.60
2018-12-03T16:14:26.293Z,15.50
2018-12-03T16:16:52.581Z,15.50
2018-12-03T16:19:18.944Z,15.30
2018-12-03T16:21:45.243Z,15.20
2018-12-03T16:24:11.533Z,15.10
2018-12-03T16:26:38.564Z,15.10
2018-12-03T16:29:04.826Z,15.10
2018-12-03T16:31:31.187Z,15.00
2018-12-03T16:33:57.484Z,15.00
2018-12-03T16:36:24.762Z,15.00
2018-12-03T16:38:51.054Z,15.00
2018-12-03T16:41:17.388Z,14.90
2018-12-03T16:43:44.411Z,15.00
2018-12-03T16:46:10.688Z,15.00
2018-12-03T16:48:37.904Z,15.00
2018-12-03T16:51:04.943Z,15.00
2018-12-03T16:53:31.224Z,15.00
2018-12-03T16:55:57.502Z,15.00
2018-12-03T16:58:23.904Z,15.10
2018-12-03T17:00:50.226Z,15.10
2018-12-03T17:03:16.545Z,15.00
2018-12-03T17:05:42.813Z,15.20
2018-12-03T17:08:09.976Z,15.00
2018-12-03T17:10:36.305Z,14.90
2018-12-03T17:13:03.320Z,14.90
2018-12-03T17:15:29.617Z,14.70
2018-12-03T17:17:56.716Z,14.70
2018-12-03T17:20:22.997Z,14.70
2018-12-03T17:22:49.320Z,14.80
2018-12-03T17:25:15.647Z,14.90
2018-12-03T17:27:42.078Z,15.00
2018-12-03T17:30:08.448Z,15.20
2018-12-03T17:32:34.809Z,15.30
2018-12-03T17:35:01.965Z,15.40
2018-12-03T17:37:28.275Z,15.40
2018-12-03T17:39:55.376Z,15.40
2018-12-03T17:42:21.680Z,15.40
2018-12-03T17:44:47.947Z,15.40
2018-12-03T17:47:14.236Z,15.40
2018-12-03T17:49:40.557Z,15.40
2018-12-03T17:52:07.605Z,15.60
2018-12-03T17:54:34.602Z,15.70
2018-12-03T17:57:00.889Z,15.70
2018-12-03T17:59:27.178Z,15.70
2018-12-03T18:04:26.541Z,15.50
2018-12-03T18:06:52.863Z,15.50
2018-12-03T18:09:19.183Z,15.50
2018-12-03T18:11:45.573Z,15.50
2018-12-03T18:14:11.899Z,15.70
2018-12-03T18:16:38.240Z,15.70
2018-12-03T18:19:05.464Z,15.70
2018-12-03T18:21:31.830Z,15.70
2018-12-03T18:23:58.130Z,15.70
2018-12-03T18:26:24.479Z,15.70
2018-12-03T18:28:50.833Z,15.60
2018-12-03T18:31:17.958Z,15.70
2018-12-03T18:33:44.280Z,15.70
2018-12-03T18:36:10.596Z,15.70
2018-12-03T18:38:37.337Z,15.70
2018-12-03T18:41:04.443Z,15.60
2018-12-03T18:43:30.771Z,15.50
2018-12-03T18:45:57.835Z,15.60
2018-12-03T18:48:24.166Z,15.60
2018-12-03T18:50:50.467Z,15.50
2018-12-03T18:53:17.507Z,15.60
2018-12-03T18:55:44.546Z,15.50
2018-12-03T18:58:10.814Z,15.50
2018-12-03T19:00:37.145Z,15.50
2018-12-03T19:03:03.657Z,15.50
2018-12-03T19:05:30.700Z,15.40
2018-12-03T19:07:57.762Z,15.20
2018-12-03T19:10:24.271Z,15.20
2018-12-03T19:12:50.651Z,15.10
2018-12-03T19:15:16.969Z,15.10
2018-12-03T19:17:43.287Z,15.20
2018-12-03T19:20:09.641Z,15.20
2018-12-03T19:22:36.047Z,15.30
2018-12-03T19:25:02.483Z,15.40
2018-12-03T19:27:28.806Z,15.40
2018-12-03T19:29:55.218Z,15.20
2018-12-03T19:32:22.458Z,15.30
2018-12-03T19:34:48.851Z,15.30
2018-12-03T19:37:15.163Z,15.10
2018-12-03T19:39:41.578Z,15.30
2018-12-03T19:42:09.564Z,15.30
2018-12-03T19:44:35.987Z,15.30
2018-12-03T19:47:02.431Z,15.20
2018-12-03T19:49:28.733Z,15.10
2018-12-03T19:51:55.930Z,14.80
2018-12-03T19:54:22.312Z,14.80
2018-12-03T19:56:48.739Z,14.70
2018-12-03T19:59:15.809Z,14.60
2018-12-03T20:01:42.142Z,14.50
2018-12-03T20:04:08.576Z,14.50
2018-12-03T20:06:34.896Z,14.30
2018-12-03T20:09:01.544Z,14.40
2018-12-03T20:11:27.783Z,14.50
2018-12-03T20:13:54.136Z,14.50
2018-12-03T20:16:20.381Z,14.60
2018-12-03T20:18:47.447Z,14.50
2018-12-03T20:21:13.722Z,14.50
2018-12-03T20:23:40.048Z,14.30
2018-12-03T20:26:06.397Z,14.20
2018-12-03T20:28:33.522Z,14.30
2018-12-03T20:30:59.929Z,14.30
2018-12-03T20:33:26.368Z,14.20
2018-12-03T20:35:52.770Z,14.00
2018-12-03T20:38:19.162Z,14.10
2018-12-03T20:40:45.489Z,14.00
2018-12-03T20:43:11.850Z,14.00
2018-12-03T20:45:39.185Z,13.90
2018-12-03T20:48:05.595Z,13.90
2018-12-03T20:50:32.817Z,13.70
2018-12-03T20:52:59.133Z,13.60
2018-12-03T20:55:27.149Z,13.50
2018-12-03T20:57:53.551Z,13.50
2018-12-03T21:00:20.751Z,13.40
2018-12-03T21:02:47.089Z,13.40
2018-12-03T21:05:13.436Z,13.30
2018-12-03T21:07:39.728Z,13.30
2018-12-03T21:10:06.117Z,13.30
2018-12-03T21:12:32.532Z,13.40
2018-12-03T21:14:58.884Z,13.20
2018-12-03T21:17:25.235Z,13.20
2018-12-03T21:19:51.575Z,13.20
2018-12-03T21:22:17.935Z,13.20
2018-12-03T21:24:44.272Z,13.20
2018-12-03T21:27:11.335Z,13.20
2018-12-03T21:29:38.503Z,13.20
2018-12-03T21:32:04.941Z,13.20
2018-12-03T21:34:31.281Z,13.20
2018-12-03T21:36:57.786Z,13.20
2018-12-03T21:39:24.102Z,13.20
2018-12-03T21:41:51.101Z,13.30
2018-12-03T21:44:17.377Z,13.30
2018-12-03T21:46:43.711Z,13.40
2018-12-03T21:49:10.761Z,13.50
2018-12-03T21:51:37.053Z,13.40
2018-12-03T21:54:03.340Z,13.40
2018-12-03T21:56:29.701Z,13.30
2018-12-03T21:58:55.984Z,13.30
2018-12-03T22:01:22.252Z,13.30
2018-12-03T22:03:48.542Z,13.20
2018-12-03T22:06:15.564Z,13.10
2018-12-03T22:08:41.888Z,13.10
2018-12-03T22:11:08.156Z,13.20
2018-12-03T22:13:34.420Z,13.20
2018-12-03T22:16:00.728Z,13.10
2018-12-03T22:18:26.973Z,13.20
2018-12-03T22:20:53.238Z,13.20
2018-12-03T22:23:19.583Z,13.20
2018-12-03T22:25:46.605Z,13.40
2018-12-03T22:28:12.906Z,13.40
2018-12-03T22:30:39.407Z,13.20
2018-12-03T22:33:05.733Z,13.20
2018-12-03T22:35:32.002Z,13.30
2018-12-03T22:37:58.257Z,13.30
2018-12-03T22:40:24.522Z,13.30
2018-12-03T22:42:51.698Z,13.10
2018-12-03T22:45:17.944Z,13.10
2018-12-03T22:47:44.189Z,13.00
2018-12-03T22:50:10.481Z,13.00
2018-12-03T22:52:36.789Z,12.90
2018-12-03T22:55:03.048Z,12.80
2018-12-03T22:57:29.288Z,12.90
2018-12-03T22:59:55.561Z,12.90
2018-12-03T23:02:22.552Z,12.80
2018-12-03T23:04:48.791Z,12.80
2018-12-03T23:07:15.104Z,12.80
2018-12-03T23:09:41.401Z,12.80
2018-12-03T23:12:07.672Z,12.70
2018-12-03T23:14:34.017Z,12.70
2018-12-03T23:17:00.805Z,12.80
2018-12-03T23:19:27.045Z,12.80
2018-12-03T23:21:53.360Z,12.70
2018-12-03T23:24:19.649Z,12.70
2018-12-03T23:26:45.906Z,12.80
2018-12-03T23:29:12.177Z,12.80
2018-12-03T23:31:38.445Z,12.90
2018-12-03T23:34:05.471Z,13.00
2018-12-03T23:36:32.478Z,13.00
2018-12-03T23:38:59.541Z,12.90
2018-12-03T23:41:25.812Z,12.90
2018-12-03T23:43:52.814Z,12.90
2018-12-03T23:46:19.993Z,12.90
2018-12-03T23:48:46.252Z,12.80
2018-12-03T23:51:13.240Z,12.90
2018-12-03T23:53:39.496Z,12.80
2018-12-03T23:56:05.789Z,13.00
2018-12-03T23:58:32.039Z,12.90
